Time;durP1;ratioP1;P1;durP2;ratioP2;P2;SDS_P1;SDS_P2;PMS_P1;PMS_P2;Temp;Humidity;BMP_temperature;BMP_pressure;BME280_temperature;BME280_humidity;BME280_pressure;Samples;Min_cycle;Max_cycle;Signal;HPM_P1;HPM_P2
2023/12/19 00:00:28;;;;;;;15.00;8.00;;;27.60;99.90;;;;;;5058358;28;20727;-77
2023/12/19 00:02:59;;;;;;;18.45;8.48;;;27.70;99.90;;;;;;5056256;28;20189;-77
2023/12/19 00:05:29;;;;;;;17.00;8.43;;;27.80;99.90;;;;;;5053364;28;20556;-77
2023/12/19 00:08:00;;;;;;;17.98;9.23;;;27.80;99.90;;;;;;5040516;28;20552;-77
2023/12/19 00:10:31;;;;;;;13.60;8.68;;;27.90;99.90;;;;;;5046206;28;20275;-77
2023/12/19 00:13:02;;;;;;;19.05;9.88;;;28.00;99.90;;;;;;5045500;28;20277;-77
2023/12/19 00:15:35;;;;;;;15.25;9.10;;;27.90;99.90;;;;;;5039821;28;20707;-77
2023/12/19 00:18:06;;;;;;;11.60;8.50;;;27.90;99.90;;;;;;5054946;28;20664;-77
2023/12/19 00:20:37;;;;;;;14.73;8.52;;;28.00;99.90;;;;;;5049646;28;20281;-77
2023/12/19 00:23:08;;;;;;;18.98;9.63;;;28.10;99.90;;;;;;5068237;28;20280;-76
2023/12/19 00:25:39;;;;;;;15.95;10.43;;;28.10;99.90;;;;;;5070638;28;20535;-77
2023/12/19 00:28:10;;;;;;;17.88;10.45;;;28.10;99.90;;;;;;5051109;28;20186;-77
2023/12/19 00:30:43;;;;;;;16.73;10.32;;;28.10;99.90;;;;;;5039852;28;20217;-77
2023/12/19 00:33:13;;;;;;;19.35;10.02;;;28.20;99.90;;;;;;5052533;28;20193;-77
2023/12/19 00:35:44;;;;;;;18.42;10.88;;;28.20;99.90;;;;;;5040076;28;20278;-77
2023/12/19 00:38:15;;;;;;;17.77;11.48;;;28.40;99.90;;;;;;5054248;28;20552;-77
2023/12/19 00:40:46;;;;;;;21.48;12.38;;;28.50;99.90;;;;;;5047725;28;20191;-78
2023/12/19 00:43:17;;;;;;;20.50;12.20;;;28.50;99.90;;;;;;5053159;28;20225;-78
2023/12/19 00:45:50;;;;;;;20.52;13.35;;;28.60;99.90;;;;;;5045768;28;20195;-78
2023/12/19 00:48:21;;;;;;;24.27;15.63;;;28.60;99.90;;;;;;5053401;28;20264;-78
2023/12/19 00:50:51;;;;;;;24.40;16.77;;;28.70;99.90;;;;;;5049561;28;20216;-78
2023/12/19 00:53:22;;;;;;;24.50;16.45;;;28.70;99.90;;;;;;5047169;28;20193;-78
2023/12/19 00:55:53;;;;;;;19.67;15.00;;;28.70;99.90;;;;;;5059213;28;20185;-79
2023/12/19 00:58:24;;;;;;;22.83;15.45;;;28.80;99.90;;;;;;5054210;28;20292;-78
2023/12/19 01:00:57;;;;;;;24.83;17.98;;;28.80;99.90;;;;;;5047114;28;20221;-78
2023/12/19 01:03:28;;;;;;;26.77;18.73;;;28.80;99.90;;;;;;5053980;28;20696;-78
2023/12/19 01:05:59;;;;;;;26.80;19.00;;;28.80;99.90;;;;;;5059195;28;20574;-78
2023/12/19 01:08:29;;;;;;;28.95;19.48;;;28.80;99.90;;;;;;5054109;28;20629;-78
2023/12/19 01:11:00;;;;;;;27.17;19.73;;;28.80;99.90;;;;;;5058979;28;20213;-77
2023/12/19 01:13:31;;;;;;;26.48;20.65;;;28.80;99.90;;;;;;5055444;28;20189;-78
2023/12/19 01:16:04;;;;;;;29.90;22.48;;;28.80;99.90;;;;;;5047844;28;20190;-78
2023/12/19 01:18:35;;;;;;;27.52;21.42;;;28.80;99.90;;;;;;5047987;28;20182;-78
2023/12/19 01:21:06;;;;;;;28.90;22.02;;;28.90;99.90;;;;;;5040716;28;20206;-75
2023/12/19 01:23:36;;;;;;;30.77;22.70;;;28.90;99.90;;;;;;5050531;28;20190;-78
2023/12/19 01:26:07;;;;;;;29.10;22.08;;;28.90;99.90;;;;;;5048838;28;20186;-78
2023/12/19 01:28:41;;;;;;;30.40;22.52;;;29.00;99.90;;;;;;5051731;28;20551;-78
2023/12/19 01:31:14;;;;;;;37.47;26.05;;;29.00;99.90;;;;;;5048975;28;20332;-76
2023/12/19 01:33:45;;;;;;;29.88;24.70;;;29.00;99.90;;;;;;5053131;28;20186;-78
2023/12/19 01:36:16;;;;;;;35.05;25.90;;;29.00;99.90;;;;;;5051591;28;20201;-78
2023/12/19 01:38:46;;;;;;;39.72;29.25;;;29.00;99.90;;;;;;5043711;28;20186;-78
2023/12/19 01:41:17;;;;;;;36.65;28.38;;;29.00;99.90;;;;;;5051405;28;20185;-78
2023/12/19 01:43:48;;;;;;;34.55;27.38;;;29.10;99.90;;;;;;5053324;28;20236;-78
2023/12/19 01:46:21;;;;;;;37.92;30.33;;;29.10;99.90;;;;;;5053169;28;20261;-79
2023/12/19 01:48:52;;;;;;;42.40;30.40;;;29.20;99.90;;;;;;5043263;28;20201;-78
2023/12/19 01:51:22;;;;;;;39.75;31.33;;;;;;;;;;5050455;28;20313;-78
2023/12/19 01:53:53;;;;;;;42.35;31.80;;;;;;;;;;5053448;28;20204;-77
2023/12/19 01:56:23;;;;;;;39.70;31.40;;;;;;;;;;5054155;28;20296;-77
2023/12/19 01:58:53;;;;;;;43.22;33.22;;;;;;;;;;5053108;28;20645;-77
2023/12/19 02:01:26;;;;;;;45.13;33.47;;;;;;;;;;5053738;28;20202;-77
2023/12/19 02:03:56;;;;;;;45.10;34.35;;;;;;;;;;5053548;28;20654;-78
2023/12/19 02:06:26;;;;;;;38.65;32.75;;;;;;;;;;5053522;28;20209;-78
2023/12/19 02:08:56;;;;;;;46.42;39.05;;;;;;;;;;5053490;28;20200;-78
2023/12/19 02:11:26;;;;;;;59.55;52.92;;;;;;;;;;5053378;28;20229;-78
2023/12/19 02:13:58;;;;;;;67.13;59.83;;;;;;;;;;5053452;28;20284;-79
2023/12/19 02:16:30;;;;;;;78.85;69.05;;;;;;;;;;5053435;28;20263;-79
2023/12/19 02:19:03;;;;;;;77.25;69.05;;;;;;;;;;5053462;28;20664;-79
2023/12/19 02:21:35;;;;;;;81.30;72.70;;;;;;;;;;5053319;28;20194;-79
2023/12/19 02:24:07;;;;;;;82.95;74.07;;;;;;;;;;5053231;28;20200;-80
2023/12/19 02:26:38;;;;;;;78.57;70.28;;;;;;;;;;5053286;28;20197;-78
2023/12/19 02:29:10;;;;;;;80.22;71.97;;;;;;;;;;5053384;28;20221;-78
2023/12/19 02:31:40;;;;;;;78.35;69.85;;;;;;;;;;5053041;28;20217;-79
2023/12/19 02:34:10;;;;;;;72.85;65.18;;;;;;;;;;5052572;28;20633;-78
2023/12/19 02:36:40;;;;;;;73.22;65.43;;;;;;;;;;5052532;28;20197;-78
2023/12/19 02:39:12;;;;;;;73.63;65.45;;;;;;;;;;5052149;28;20205;-78
2023/12/19 02:41:43;;;;;;;69.68;62.15;;;;;;;;;;5052807;28;20203;-77
2023/12/19 02:44:13;;;;;;;66.05;59.00;;;;;;;;;;5052606;28;20229;-79
2023/12/19 02:46:43;;;;;;;65.70;58.70;;;;;;;;;;5053152;28;20683;-80
2023/12/19 02:49:13;;;;;;;64.55;57.65;;;;;;;;;;5053459;28;20201;-79
2023/12/19 02:51:43;;;;;;;61.97;55.58;;;;;;;;;;5052921;28;20229;-79
2023/12/19 02:54:15;;;;;;;60.83;54.28;;;;;;;;;;5052947;28;20197;-80
2023/12/19 02:56:45;;;;;;;60.53;54.13;;;;;;;;;;5053048;28;20229;-79
2023/12/19 02:59:17;;;;;;;60.40;54.13;;;;;;;;;;5052819;28;20201;-79
2023/12/19 03:01:49;;;;;;;58.47;52.45;;;;;;;;;;5053251;28;20628;-79
2023/12/19 03:04:19;;;;;;;59.47;53.25;;;;;;;;;;5052348;28;20247;-80
2023/12/19 03:06:49;;;;;;;53.78;48.08;;;;;;;;;;5052313;28;20209;-80
2023/12/19 03:09:21;;;;;;;50.08;44.88;;;;;;;;;;5053108;28;20296;-81
2023/12/19 03:12:03;;;;;;;49.92;44.67;;;;;;;;;;5052802;28;20312;-82
2023/12/19 03:14:33;;;;;;;49.45;44.33;;;;;;;;;;5052683;28;20194;-81
2023/12/19 03:17:03;;;;;;;47.38;42.47;;;;;;;;;;5052879;28;20197;-79
2023/12/19 03:19:33;;;;;;;46.75;41.95;;;;;;;;;;5052819;28;20600;-78
2023/12/19 03:22:04;;;;;;;48.05;42.95;;;;;;;;;;5052725;28;20205;-81
2023/12/19 03:24:36;;;;;;;51.45;45.95;;;;;;;;;;5052803;28;20260;-80
2023/12/19 03:27:06;;;;;;;52.78;47.35;;;;;;;;;;5048597;28;20304;-79
2023/12/19 03:29:36;;;;;;;50.53;45.28;;;;;;;;;;5054319;28;20194;-79
2023/12/19 03:32:07;;;;;;;50.67;45.42;;;;;;;;;;5047799;28;20243;-79
2023/12/19 03:34:39;;;;;;;49.03;43.90;;;;;;;;;;5056549;28;20247;-79
2023/12/19 03:37:09;;;;;;;47.58;42.80;;;;;;;;;;5048884;28;20197;-79
2023/12/19 03:39:41;;;;;;;49.63;44.22;;;;;;;;;;5048460;28;20204;-81
2023/12/19 03:42:11;;;;;;;50.42;45.17;;;;;;;;;;5049047;28;20578;-81
2023/12/19 03:44:43;;;;;;;51.03;45.72;;;;;;;;;;5052043;28;20233;-81
2023/12/19 03:47:16;;;;;;;48.08;42.95;;;;;;;;;;5050640;28;20228;-80
2023/12/19 03:49:46;;;;;;;46.80;41.85;;;;;;;;;;5048584;28;20281;-81
2023/12/19 03:52:17;;;;;;;45.30;40.40;;;;;;;;;;5051934;28;20224;-78
2023/12/19 03:54:49;;;;;;;43.35;38.75;;;;;;;;;;5061720;28;20196;-81
2023/12/19 03:57:19;;;;;;;44.30;39.50;;;;;;;;;;5055432;28;20230;-78
2023/12/19 03:59:49;;;;;;;44.13;39.53;;;;;;;;;;5057127;28;20671;-80
2023/12/19 04:02:19;;;;;;;42.47;38.03;;;;;;;;;;5053410;28;20232;-77
2023/12/19 04:04:49;;;;;;;41.25;36.95;;;;;;;;;;5059708;28;20200;-80
2023/12/19 04:07:19;;;;;;;39.35;35.13;;;;;;;;;;5051236;28;20198;-79
2023/12/19 04:09:50;;;;;;;39.42;35.13;;;;;;;;;;5058115;28;20197;-80
2023/12/19 04:12:20;;;;;;;37.65;33.17;;;;;;;;;;5047419;28;20205;-78
2023/12/19 04:14:50;;;;;;;37.95;32.58;;;;;;;;;;5061711;28;20209;-82
2023/12/19 04:17:20;;;;;;;37.28;33.10;;;;;;;;;;5051822;28;20203;-81
2023/12/19 04:19:50;;;;;;;36.65;32.85;;;;;;;;;;5053967;28;20232;-80
2023/12/19 04:22:20;;;;;;;38.30;34.30;;;;;;;;;;5052514;28;20219;-80
2023/12/19 04:24:52;;;;;;;36.47;32.63;;;;;;;;;;5053675;28;20189;-80
2023/12/19 04:27:20;;;;;;;37.85;33.75;;;;;;;;;;5055218;28;20192;-81
2023/12/19 04:29:54;;;;;;;39.42;35.28;;;;;;;;;;5040530;28;20554;-78
2023/12/19 04:32:24;;;;;;;38.83;34.72;;;;;;;;;;5047040;28;20227;-80
2023/12/19 04:34:54;;;;;;;38.50;34.00;;;;;;;;;;5058045;28;20201;-80
2023/12/19 04:37:24;;;;;;;39.65;35.17;;;;;;;;;;5057717;28;20208;-78
2023/12/19 04:39:57;;;;;;;38.58;34.28;;;;;;;;;;5056475;28;20202;-80
2023/12/19 04:42:27;;;;;;;38.70;34.65;;;;;;;;;;5056509;28;20217;-82
2023/12/19 04:44:57;;;;;;;37.42;33.53;;;;;;;;;;5057887;28;20771;-80
2023/12/19 04:47:27;;;;;;;36.65;32.75;;;;;;;;;;5056947;28;20201;-79
2023/12/19 04:49:56;;;;;;;34.97;31.27;;;;;;;;;;5056006;28;20575;-80
2023/12/19 04:52:26;;;;;;;36.78;32.58;;;;;;;;;;5054669;28;20235;-79
2023/12/19 04:54:58;;;;;;;37.33;33.33;;;;;;;;;;5050362;28;20201;-78
2023/12/19 04:57:28;;;;;;;37.20;32.33;;;;;;;;;;5050847;28;20683;-79
2023/12/19 04:59:58;;;;;;;36.60;32.72;;;;;;;;;;5050972;28;20219;-80
2023/12/19 05:02:28;;;;;;;36.63;32.72;;;;;;;;;;5034884;28;20289;-79
2023/12/19 05:04:58;;;;;;;36.85;32.72;;;;;;;;;;5051754;28;20284;-81
2023/12/19 05:07:28;;;;;;;35.97;31.90;;;;;;;;;;5044587;28;20201;-81
2023/12/19 05:10:00;;;;;;;36.22;32.33;;;;;;;;;;5049027;28;20189;-80
2023/12/19 05:12:30;;;;;;;34.97;31.38;;;;;;;;;;5051692;28;20592;-80
2023/12/19 05:15:03;;;;;;;34.63;30.88;;;;;;;;;;5047494;28;20196;-80
2023/12/19 05:17:33;;;;;;;34.05;30.55;;;;;;;;;;5052256;28;20267;-81
2023/12/19 05:20:03;;;;;;;34.60;30.67;;;;;;;;;;5040763;28;20194;-81
2023/12/19 05:22:33;;;;;;;34.15;30.55;;;;;;;;;;5045783;28;20217;-80
2023/12/19 05:25:04;;;;;;;33.70;30.25;;;;;;;;;;5053429;28;20192;-80
2023/12/19 05:27:36;;;;;;;32.85;29.40;;;;;;;;;;5051412;28;20196;-80
2023/12/19 05:30:06;;;;;;;32.90;29.60;;;;;;;;;;5053629;28;20225;-80
2023/12/19 05:32:36;;;;;;;33.85;30.10;;;;;;;;;;5051715;28;20251;-79
2023/12/19 05:35:07;;;;;;;34.15;30.65;;;;;;;;;;5051541;28;20262;-79
2023/12/19 05:37:37;;;;;;;33.97;30.48;;;;;;;;;;5050390;28;20735;-80
2023/12/19 05:40:10;;;;;;;33.25;29.85;;;;;;;;;;5044178;28;20243;-76
2023/12/19 05:42:40;;;;;;;35.25;31.55;;;;;;;;;;5052717;28;20702;-79
2023/12/19 05:45:11;;;;;;;34.30;30.65;;;;;;;;;;5046013;28;20714;-80
2023/12/19 05:47:41;;;;;;;34.30;30.65;;;;;;;;;;5051575;28;20199;-80
2023/12/19 05:50:11;;;;;;;33.67;30.05;;;;;;;;;;5052714;28;20197;-82
2023/12/19 05:52:41;;;;;;;32.35;29.05;;;;;;;;;;5052004;28;20217;-80
2023/12/19 05:55:13;;;;;;;32.00;28.90;;;;;;;;;;5053250;28;20201;-80
2023/12/19 05:57:43;;;;;;;32.55;29.25;;;;;;;;;;5052757;28;20211;-80
2023/12/19 06:00:13;;;;;;;32.00;28.60;;;;;;;;;;5052649;28;20199;-79
2023/12/19 06:02:43;;;;;;;32.75;29.45;;;;;;;;;;5051756;28;20189;-79
2023/12/19 06:05:13;;;;;;;31.67;28.58;;;;;;;;;;5052716;28;20205;-79
2023/12/19 06:07:44;;;;;;;32.10;28.48;;;;;;;;;;5051646;28;20197;-81
2023/12/19 06:10:19;;;;;;;32.22;28.90;;;;;;;;;;5052168;28;20562;-79
2023/12/19 06:12:49;;;;;;;34.33;29.38;;;;;;;;;;5052159;28;20224;-76
2023/12/19 06:15:19;;;;;;;31.42;27.77;;;;;;;;;;5059755;28;20236;-78
2023/12/19 06:17:49;;;;;;;31.75;28.42;;;;;;;;;;5052339;28;20292;-76
2023/12/19 06:20:19;;;;;;;31.40;28.02;;;;;;;;;;5053031;28;20204;-78
2023/12/19 06:22:49;;;;;;;31.02;27.75;;;;;;;;;;5052425;28;20213;-77
2023/12/19 06:25:21;;;;;;;32.33;27.60;;;;;;;;;;5047239;28;20201;-76
2023/12/19 06:27:51;;;;;;;30.40;26.52;;;;;;;;;;5044674;28;20190;-78
2023/12/19 06:30:21;;;;;;;30.00;26.55;;;;;;;;;;5042953;28;20201;-79
2023/12/19 06:32:51;;;;;;;28.85;25.83;;;;;;;;;;5042036;28;20232;-79
2023/12/19 06:35:21;;;;;;;28.58;25.10;;;;;;;;;;5051561;28;20201;-78
2023/12/19 06:37:51;;;;;;;28.17;25.20;;;;;;;;;;5052340;28;20193;-78
2023/12/19 06:40:23;;;;;;;29.17;24.55;;;;;;;;;;5051566;28;20197;-78
2023/12/19 06:42:53;;;;;;;28.50;23.50;;;;;;;;;;5052222;28;20222;-79
2023/12/19 06:45:24;;;;;;;27.85;23.63;;;;;;;;;;5049888;28;20589;-78
2023/12/19 06:47:53;;;;;;;27.27;23.70;;;;;;;;;;5052837;28;20237;-76
2023/12/19 06:50:24;;;;;;;25.15;22.58;;;;;;;;;;5051536;28;20657;-79
2023/12/19 06:52:54;;;;;;;26.60;22.73;;;;;;;;;;5050890;28;20225;-79
2023/12/19 06:55:27;;;;;;;26.63;22.00;;;;;;;;;;5049974;28;20638;-78
2023/12/19 06:57:57;;;;;;;23.40;20.90;;;;;;;;;;5049090;28;20194;-78
2023/12/19 07:00:28;;;;;;;26.10;20.92;;;;;;;;;;5050898;28;20197;-78
2023/12/19 07:02:58;;;;;;;22.95;20.08;;;;;;;;;;5051768;28;20712;-76
2023/12/19 07:05:27;;;;;;;22.42;19.92;;;;;;;;;;5055739;28;20197;-79
2023/12/19 07:07:57;;;;;;;23.30;19.40;;;;;;;;;;5054875;28;20200;-78
2023/12/19 07:10:29;;;;;;;22.73;19.23;;;;;;;;;;5054358;28;20194;-79
2023/12/19 07:12:59;;;;;;;19.48;17.48;;;;;;;;;;5057589;28;20229;-82
2023/12/19 07:15:31;;;;;;;19.27;16.98;;;;;;;;;;5048091;28;20196;-78
2023/12/19 07:18:00;;;;;;;19.90;16.40;;;;;;;;;;5054836;28;20605;-79
2023/12/19 07:20:30;;;;;;;18.33;16.38;;;;;;;;;;5055674;28;20201;-78
2023/12/19 07:23:03;;;;;;;18.48;15.57;;;;;;;;;;5056081;28;20255;-75
2023/12/19 07:25:35;;;;;;;16.85;14.50;;;;;;;;;;5055561;28;20196;-77
2023/12/19 07:28:05;;;;;;;19.00;14.43;;;;;;;;;;5057007;28;20233;-78
2023/12/19 07:30:36;;;;;;;16.48;13.27;;;;;;;;;;5055883;28;20617;-79
2023/12/19 07:33:06;;;;;;;15.05;13.45;;;;;;;;;;5055739;28;20221;-78
2023/12/19 07:35:36;;;;;;;16.80;14.35;;;;;;;;;;5052230;28;20225;-77
2023/12/19 07:38:06;;;;;;;17.85;14.25;;;;;;;;;;5044425;28;20205;-79
2023/12/19 07:40:40;;;;;;;19.95;14.38;;;;;;;;;;5054059;28;20201;-79
2023/12/19 07:43:10;;;;;;;16.00;14.32;;;;;;;;;;5052605;28;20600;-79
2023/12/19 07:45:40;;;;;;;15.82;13.43;;;;;;;;;;5054079;28;20263;-78
2023/12/19 07:48:10;;;;;;;15.07;13.35;;;;;;;;;;5054965;28;20212;-79
2023/12/19 07:50:40;;;;;;;16.65;13.38;;;;;;;;;;5053771;28;20202;-78
2023/12/19 07:53:11;;;;;;;15.32;13.13;;;;;;;;;;5049901;28;20217;-78
2023/12/19 07:55:43;;;;;;;15.98;13.23;;;;;;;;;;5055304;28;20244;-77
2023/12/19 07:58:13;;;;;;;14.95;13.27;;;;;;;;;;5055642;28;20198;-81
2023/12/19 08:00:43;;;;;;;16.90;12.70;;;;;;;;;;5047523;28;20723;-81
2023/12/19 08:03:15;;;;;;;15.70;12.57;;;;;;;;;;5054987;28;20243;-80
2023/12/19 08:05:50;;;;;;;15.10;13.02;;;;;;;;;;5052923;28;20556;-79
2023/12/19 08:08:20;;;;;;;14.95;13.13;;;;;;;;;;5049363;28;20204;-80
2023/12/19 08:10:52;;;;;;;16.70;12.70;;;;;;;;;;5052845;28;20223;-79
2023/12/19 08:13:22;;;;;;;13.40;11.98;;;;;;;;;;5046573;28;20249;-82
2023/12/19 08:15:52;;;;;;;13.23;11.13;;;;;;;;;;5048855;28;20237;-77
2023/12/19 08:18:22;;;;;;;12.52;11.10;;;;;;;;;;5054955;28;20205;-79
2023/12/19 08:20:52;;;;;;;12.23;10.82;;;;;;;;;;5052817;28;20620;-78
2023/12/19 08:23:22;;;;;;;11.13;9.88;;;;;;;;;;5053019;28;20203;-79
2023/12/19 08:25:54;;;;;;;11.35;10.10;;;;;;;;;;5066568;28;20198;-78
2023/12/19 08:28:24;;;;;;;11.02;8.98;;;;;;;;;;5047468;28;20288;-78
2023/12/19 08:30:57;;;;;;;11.48;8.80;;;;;;;;;;5054145;28;20231;-79
2023/12/19 08:33:27;;;;;;;11.25;9.00;;;;;;;;;;5043869;28;20689;-79
2023/12/19 08:35:57;;;;;;;11.25;9.07;;;;;;;;;;5050432;28;20245;-79
2023/12/19 08:38:27;;;;;;;10.88;8.95;;;;;;;;;;5052189;28;20201;-79
2023/12/19 08:40:59;;;;;;;9.68;8.40;;;;;;;;;;5051550;28;20224;-78
2023/12/19 08:43:29;;;;;;;9.60;8.60;;;;;;;;;;5049863;28;20237;-77
2023/12/19 08:45:59;;;;;;;10.82;8.43;;;;;;;;;;5042434;28;20198;-79
2023/12/19 08:48:29;;;;;;;11.75;8.20;;;;;;;;;;5052982;28;20288;-77
2023/12/19 08:50:59;;;;;;;10.10;8.23;;;;;;;;;;5053867;28;20684;-78
2023/12/19 08:53:29;;;;;;;9.80;8.18;;;;;;;;;;5051145;28;20222;-78
2023/12/19 08:56:04;;;;;;;9.70;8.32;;;;;;;;;;5050181;28;20212;-78
2023/12/19 08:58:34;;;;;;;9.05;7.70;;;;;;;;;;5043207;28;20559;-78
2023/12/19 09:01:04;;;;;;;9.60;8.13;;;;;;;;;;5053467;28;20212;-78
2023/12/19 09:03:36;;;;;;;11.20;8.10;;;;;;;;;;5043422;28;20209;-79
2023/12/19 09:06:07;;;;;;;9.77;8.57;;;;;;;;;;5051156;28;20241;-78
2023/12/19 09:08:37;;;;;;;13.73;8.25;;;;;;;;;;5048426;28;20194;-77
2023/12/19 09:11:09;;;;;;;9.68;6.07;;;;;;;;;;5053458;28;20213;-79
2023/12/19 09:13:40;;;;;;;8.23;5.60;;;;;;;;;;5045666;28;20209;-79
2023/12/19 09:16:11;;;;;;;13.68;5.68;;;;;;;;;;5050328;28;20657;-77
2023/12/19 09:18:41;;;;;;;10.55;4.45;;;;;;;;;;5053241;28;20202;-77
2023/12/19 09:21:11;;;;;;;11.25;4.50;;;;;;;;;;5052764;28;20210;-78
2023/12/19 09:23:41;;;;;;;9.80;3.63;;;;;;;;;;5043756;28;20213;-78
2023/12/19 09:26:13;;;;;;;16.42;3.90;;;;;;;;;;5047232;28;20213;-77
2023/12/19 09:28:44;;;;;;;15.57;3.92;;;;;;;;;;5048095;28;20201;-80
2023/12/19 09:31:14;;;;;;;16.50;4.43;;;;;;;;;;5053763;28;20201;-86
2023/12/19 09:33:44;;;;;;;17.08;4.85;;;;;;;;;;5045324;28;20336;-82
2023/12/19 09:36:23;;;;;;;18.65;5.18;;;;;;;;;;5053427;28;20202;-86
2023/12/19 09:38:54;;;;;;;18.25;4.63;;;;;;;;;;5045657;28;20716;-85
2023/12/19 09:41:26;;;;;;;23.48;4.88;;;;;;;;;;5048789;28;20190;-84
2023/12/19 09:43:59;;;;;;;20.52;5.05;;;;;;;;;;5046108;28;20242;-82
2023/12/19 09:46:33;;;;;;;25.13;4.72;;;;;;;;;;5054245;28;20197;-85
2023/12/19 09:49:03;;;;;;;23.35;5.40;;;;;;;;;;5044418;28;20192;-81
2023/12/19 09:51:34;;;;;;;27.80;5.45;;;;;;;;;;5055846;28;20280;-82
2023/12/19 09:54:04;;;;;;;22.70;4.65;;;;;;;;;;5049543;28;20263;-84
2023/12/19 09:56:37;;;;;;;30.70;5.63;;;;;;;;;;5050012;28;20297;-83
2023/12/19 09:59:07;;;;;;;25.40;5.68;;;;;;;;;;5041155;28;20197;-81
2023/12/19 10:01:38;;;;;;;25.25;5.88;;;;;;;;;;5047583;28;20208;-81
2023/12/19 10:04:13;;;;;;;23.17;5.85;;;;;;;;;;5054990;28;20197;-81
2023/12/19 10:06:44;;;;;;;26.95;5.63;;;;;;;;;;5052297;28;20197;-82
2023/12/19 10:09:15;;;;;;;30.45;5.53;;;;;;;;;;5045993;28;20200;-77
2023/12/19 10:11:48;;;;;;;28.80;5.68;;;;;;;;;;5057086;28;20293;-81
2023/12/19 10:14:18;;;;;;;27.73;6.00;;;;;;;;;;5052192;28;20259;-83
2023/12/19 10:16:48;;;;;;;29.83;5.63;;;;;;;;;;5051240;28;20202;-82
2023/12/19 10:19:28;;;;;;;28.23;5.82;;;;;;;;;;5040182;28;20696;-82
2023/12/19 10:22:12;;;;;;;25.67;5.63;;;;;;;;;;5051865;28;20197;-82
2023/12/19 10:24:42;;;;;;;31.48;6.28;;;;;;;;;;5051767;28;20215;-81
2023/12/19 10:27:14;;;;;;;27.70;6.65;;;;;;;;;;5066641;28;20401;-82
2023/12/19 10:29:44;;;;;;;29.60;7.32;;;;;;;;;;5045689;28;20227;-82
2023/12/19 10:32:18;;;;;;;28.48;6.18;;;;;;;;;;5072821;28;20660;-83
2023/12/19 10:34:48;;;;;;;30.08;5.57;;;;;;;;;;5069905;28;20217;-83
2023/12/19 10:37:19;;;;;;;28.08;6.07;;;;;;;;;;5051982;28;20197;-82
2023/12/19 10:39:49;;;;;;;28.73;5.53;;;;;;;;;;5051629;28;20197;-86
2023/12/19 10:42:24;;;;;;;23.52;5.53;;;;;;;;;;5052343;28;20220;-82
2023/12/19 10:44:58;;;;;;;24.77;5.60;;;;;;;;;;5051823;28;20228;-85
2023/12/19 10:47:29;;;;;;;27.52;5.70;;;;;;;;;;5046766;28;20612;-85
2023/12/19 10:49:59;;;;;;;25.40;5.63;;;;;;;;;;5052146;28;20206;-82
2023/12/19 10:52:30;;;;;;;30.25;5.50;;;;;;;;;;5048753;28;20221;-82
2023/12/19 10:55:05;;;;;;;24.77;5.53;;;;;;;;;;5047753;28;20222;-81
2023/12/19 10:57:39;;;;;;;20.10;4.93;;;;;;;;;;5045087;28;20196;-83
2023/12/19 11:00:11;;;;;;;22.70;4.95;;;;;;;;;;5052465;28;20200;-82
2023/12/19 11:02:45;;;;;;;21.65;5.45;;;;;;;;;;5052802;28;20194;-83
2023/12/19 11:05:18;;;;;;;21.77;4.57;;;;;;;;;;5051707;28;20684;-82
2023/12/19 11:07:48;;;;;;;23.08;4.65;;;;;;;;;;5042400;28;20233;-86
2023/12/19 11:10:20;;;;;;;23.70;5.00;;;;;;;;;;5050267;28;20210;-81
2023/12/19 11:12:53;;;;;;;28.20;5.47;;;;;;;;;;5050177;28;20189;-83
2023/12/19 11:15:24;;;;;;;20.55;4.93;;;;;;;;;;5051785;28;20216;-81
2023/12/19 11:17:57;;;;;;;26.58;5.50;;;;;;;;;;5050320;28;20201;-78
2023/12/19 11:20:29;;;;;;;25.52;5.35;;;;;;;;;;5051967;28;20185;-81
2023/12/19 11:23:04;;;;;;;23.80;5.32;;;;;;;;;;5051988;28;20252;-77
2023/12/19 11:25:34;;;;;;;27.88;5.20;;;;;;;;;;5045853;28;20252;-83
2023/12/19 11:28:09;;;;;;;28.70;5.38;;;;;;;;;;5036853;28;20198;-81
2023/12/19 11:30:40;;;;;;;21.80;4.90;;;;;;;;;;5051989;28;20190;-82
2023/12/19 11:33:11;;;;;;;23.45;4.93;;;;;;;;;;5052965;28;20236;-78
2023/12/19 11:35:41;;;;;;;21.75;4.70;;;;;;;;;;5052627;28;20681;-84
2023/12/19 11:38:25;;;;;;;27.50;4.88;;;;;;;;;;5052031;28;20203;-84
2023/12/19 11:40:56;;;;;;;23.95;4.80;;;;;;;;;;5053309;28;20243;-79
2023/12/19 11:43:44;;;;;;;21.00;4.40;;;;;;;;;;5052286;28;20194;-80
2023/12/19 11:46:28;;;;;;;15.77;4.22;;;;;;;;;;5050627;28;20199;-82
2023/12/19 11:48:58;;;;;;;21.65;4.80;;;;;;;;;;5036636;28;20190;-82
2023/12/19 11:51:42;;;;;;;22.65;4.50;;;;;;;;;;5054898;28;20201;-81
2023/12/19 11:54:13;;;;;;;21.30;4.07;;;;;;;;;;5040777;28;20228;-83
2023/12/19 11:56:44;;;;;;;20.83;4.03;;;;;;;;;;5055785;28;20364;-83
2023/12/19 11:59:15;;;;;;;24.83;4.63;;;;;;;;;;5054797;28;20212;-83
2023/12/19 12:01:48;;;;;;;25.88;5.10;;;21.90;99.90;;;;;;5056869;28;20208;-86
2023/12/19 12:04:22;;;;;;;28.58;5.53;;;21.90;99.90;;;;;;5047619;28;20198;-82
2023/12/19 12:06:52;;;;;;;29.30;5.72;;;;;;;;;;5055672;28;20642;-87
2023/12/19 12:09:23;;;;;;;35.55;5.80;;;21.80;99.90;;;;;;5052149;28;20268;-80
2023/12/19 12:11:54;;;;;;;25.83;5.38;;;;;;;;;;5044140;28;20213;-87
2023/12/19 12:14:24;;;;;;;32.67;5.63;;;;;;;;;;5055486;28;20217;-84
2023/12/19 12:16:56;;;;;;;28.10;5.25;;;;;;;;;;5055477;28;20212;-84
2023/12/19 12:19:26;;;;;;;30.33;5.18;;;;;;;;;;5048923;28;20196;-82
2023/12/19 12:21:56;;;;;;;29.73;5.50;;;;;;;;;;5055028;28;20201;-83
2023/12/19 12:24:26;;;;;;;25.80;5.35;;;;;;;;;;5049613;28;20198;-78
2023/12/19 12:27:11;;;;;;;28.60;5.55;;;;;;;;;;5053484;28;20198;-84
2023/12/19 12:29:41;;;;;;;27.27;5.63;;;;;;;;;;5042780;28;20610;-85
2023/12/19 12:32:13;;;;;;;26.45;5.35;;;;;;;;;;5055239;28;20661;-85
2023/12/19 12:34:44;;;;;;;25.23;5.53;;;;;;;;;;5050445;28;20245;-87
2023/12/19 12:37:14;;;;;;;28.70;5.97;;;;;;;;;;5050410;28;20196;-83
2023/12/19 12:39:44;;;;;;;34.17;5.75;;;;;;;;;;5049771;28;20203;-84
2023/12/19 12:42:15;;;;;;;29.58;5.70;;;;;;;;;;5054538;28;20651;-85
2023/12/19 12:44:45;;;;;;;30.52;5.38;;;;;;;;;;5052322;28;20230;-82
2023/12/19 12:47:26;;;;;;;28.55;5.93;;;;;;;;;;5053476;28;20210;-86
2023/12/19 12:50:03;;;;;;;30.38;5.32;;;;;;;;;;5050986;28;20196;-82
2023/12/19 12:52:33;;;;;;;24.77;5.22;;;;;;;;;;5054102;28;20199;-87
2023/12/19 12:55:04;;;;;;;28.20;5.55;;;;;;;;;;5046496;28;20240;-84
2023/12/19 12:57:34;;;;;;;27.38;5.85;;;;;;;;;;5051754;28;20189;-85
2023/12/19 13:00:04;;;;;;;29.25;5.80;;;;;;;;;;5051760;28;20194;-82
2023/12/19 13:02:38;;;;;;;37.97;6.43;;;;;;;;;;5054375;28;20220;-87
2023/12/19 13:05:09;;;;;;;30.08;6.68;;;;;;;;;;5044018;28;20273;-85
2023/12/19 13:07:45;;;;;;;28.88;5.95;;;;;;;;;;5054254;28;20244;-86
2023/12/19 13:10:16;;;;;;;27.30;5.68;;;;;;;;;;5050775;28;20191;-81
2023/12/19 13:12:50;;;;;;;30.77;5.97;;;;;;;;;;5053905;28;20190;-79
2023/12/19 13:15:23;;;;;;;34.47;5.65;;;;;;;;;;5051258;28;20213;-80
2023/12/19 13:17:54;;;;;;;27.38;5.20;;;;;;;;;;5054183;28;20277;-84
2023/12/19 13:20:24;;;;;;;29.27;5.97;;;;;;;;;;5053766;28;20197;-83
2023/12/19 13:22:56;;;;;;;28.85;6.13;;;;;;;;;;5052469;28;20193;-84
2023/12/19 13:25:27;;;;;;;25.08;5.60;;;;;;;;;;5044844;28;20218;-84
2023/12/19 13:27:59;;;;;;;25.77;5.22;;;;;;;;;;5045155;28;20578;-87
2023/12/19 13:30:29;;;;;;;25.83;5.95;;;;;;;;;;5034691;28;20186;-86
2023/12/19 13:33:01;;;;;;;30.05;5.60;;;;;;;;;;5053670;28;20201;-86
2023/12/19 13:35:31;;;;;;;22.38;5.63;;;;;;;;;;5054039;28;20217;-88
2023/12/19 13:38:01;;;;;;;27.67;5.45;;;;;;;;;;5053486;28;20217;-85
2023/12/19 13:40:31;;;;;;;28.00;4.88;;;;;;;;;;5050000;28;20259;-85
2023/12/19 13:43:02;;;;;;;25.83;5.35;;;;;;;;;;5050829;28;20227;-81
2023/12/19 13:45:32;;;;;;;23.65;5.35;;;;;;;;;;5053447;28;20251;-84
2023/12/19 13:48:06;;;;;;;22.73;5.57;;;;;;;;;;5053143;28;20192;-86
2023/12/19 13:50:36;;;;;;;24.42;5.25;;;;;;;;;;5053258;28;20194;-86
2023/12/19 13:53:06;;;;;;;21.48;5.38;;;;;;;;;;5048089;28;20201;-84
2023/12/19 13:55:36;;;;;;;25.52;4.93;;;;;;;;;;5053180;28;20609;-86
2023/12/19 13:58:07;;;;;;;29.52;6.00;;;;;;;;;;5049415;28;20194;-86
2023/12/19 14:00:37;;;;;;;17.17;4.90;;;;;;;;;;5042528;28;20240;-84
2023/12/19 14:03:10;;;;;;;21.35;5.28;;;;;;;;;;5049652;28;20568;-85
2023/12/19 14:05:40;;;;;;;18.83;4.72;;;;;;;;;;5052864;28;20189;-86
2023/12/19 14:08:10;;;;;;;20.48;5.00;;;;;;;;;;5052994;28;20562;-84
2023/12/19 14:10:40;;;;;;;21.58;5.35;;;;;;;;;;5051636;28;20276;-85
2023/12/19 14:13:10;;;;;;;19.60;4.82;;;;;;;;;;5050651;28;20197;-81
2023/12/19 14:15:40;;;;;;;21.17;4.63;;;;;;;;;;5046136;28;20219;-85
2023/12/19 14:18:11;;;;;;;17.17;4.90;;;;;;;;;;5049626;28;20198;-83
2023/12/19 14:20:41;;;;;;;23.63;4.88;;;;;;;;;;5046117;28;20189;-84
2023/12/19 14:23:11;;;;;;;20.23;4.68;;;;;;;;;;5052564;28;20193;-84
2023/12/19 14:25:41;;;;;;;15.35;4.38;;;;;;;;;;5053133;28;20634;-84
2023/12/19 14:28:11;;;;;;;18.27;5.20;;;;;;;;;;5053096;28;20202;-85